Meteo Giornale » Osservazioni meteo Argentina » Iguazu Aerodrome
ore: 02:00 - Osservazioni Meteo Iguazu Aerodrome
Lat. 25° 44' S Lon. 54° 28' W Alt. 270 metri s.l.m.
15 °C
Nuvoloso
Temp. 24 Ore
15 °C
23 °C
Nord
0 Km/h
Dew point 15 °C
Umidità 100 %
Visibilità 10 Km
Il sole sorge alle ore 06:48
Il sole tramonta alle ore 18:26
| Data e Ora | Cielo e Fenomeni | T °C | DP °C | Um. % | Pres. hPa | Vis. km | Vento km/h | |
|---|---|---|---|---|---|---|---|---|
| Oggi h: 02:00 | Nuvoloso | 15 | 15 | 100 | 1017 | 10 | N 0 | |
| Oggi h: 01:11 | Molto Nuvoloso | 16 | 16 | 100 | 1018 | 10 | N 1.8 | |
| Oggi h: 01:00 | Sereno | 16 | 16 | 100 | 1018 | 10 | N 3.7 | |
| Oggi h: 00:00 | Sereno | 16 | 16 | 100 | 1018 | 10 | N 3.7 | |
| Ieri h: 23:00 | Sereno | 17 | 16 | 93 | 1018 | 10 | N 3.7 | |
| Ieri h: 22:00 | Sereno | 16 | 16 | 100 | 1018 | 10 | N 1.8 | |
| Ieri h: 21:00 | Sereno | 17 | 16 | 93 | 1017 | 10 | N 3.7 | |
| Ieri h: 20:00 | Sereno | 18 | 16 | 88 | 1017 | 10 | N 3.7 | |
| Ieri h: 19:00 | Sereno | 18 | 17 | 93 | 1016 | 10 | N 3.7 | |
| Ieri h: 18:00 | Poco Nuvoloso | 22 | 16 | 68 | 1016 | 10 | N 5.5 | |
| Ieri h: 17:00 | Poco Nuvoloso | 23 | 17 | 68 | 1016 | 10 | SO 9.3 | |
| Ieri h: 16:00 | Nuvoloso | 22 | 18 | 78 | 1015 | 10 | S 11.1 | |
| Ieri h: 15:00 | Molto Nuvoloso | 23 | 17 | 68 | 1015 | 10 | S/SO 9.3 | |
| Ieri h: 14:00 | Molto Nuvoloso | 23 | 16 | 64 | 1015 | 10 | N 3.7 | |
| Ieri h: 13:00 | Molto Nuvoloso | 22 | 16 | 68 | 1016 | 10 | O/SO 9.3 | |
| Ieri h: 12:00 | Molto Nuvoloso | 21 | 16 | 73 | 1016 | 10 | N 5.5 | |
| Ieri h: 11:00 | Molto Nuvoloso | 20 | 17 | 82 | 1016 | 10 | N 5.5 | |
| Ieri h: 10:00 | Molto Nuvoloso | 18 | 17 | 93 | 1016 | 10 | SO 7.4 | |
| Ieri h: 09:00 | Molto Nuvoloso | 19 | 17 | 88 | 1015 | 10 | N 5.5 | |
| Ieri h: 08:00 | Molto Nuvoloso | 16 | 16 | 100 | 1014 | 10 | N 3.7 | |
| Ieri h: 07:00 | Coperto | 16 | 16 | 100 | 1012 | 10 | N 0 | |
| Ieri h: 06:00 | Molto Nuvoloso | 16 | 16 | 100 | 1012 | 10 | N 1.8 | |
| Ieri h: 05:00 | Coperto | 16 | 16 | 100 | 1012 | 10 | N 5.5 | |
| Ieri h: 04:00 | Coperto | 17 | 16 | 93 | 1012 | 8 | N 3.7 | |



